San Javier, Spain

12:11 AM CET on November 01, 2014 (GMT +0100)
ITORREPA2 | Change Station
CLOSE
Current Station
Personal Weather Station
Location: Roldán, TORRE PACHECO
Elevation: 367 ft
Nearby Weather Stations

Elev 367 ft 37.80 °N, 1.03 °W | Updated 38 seconds ago

Clear
Clear
59.7 °F
Feels Like 59.7 °F
N
5.4
Wind Variable Wind from SW
Gusts 5.4 mph

Today
High -- | Low -- °F
--% Chance of Precip.
Yesterday
High -- | Low -- °F
Precip. -- in
7:28 AM 6:04 PM
First Quarter, 60% visible
Pressure 30.21 in
Visibility -9999.0 miles
Clouds
Dew Point 38 °F
Humidity 44%
Rainfall -999.00 in
Snow Depth Not available.
UV Not available.
Pollen Not available.
Air Quality Not available.
Flu Activity Not available.
METAR LEAL 312300Z VRB02KT CAVOK 16/15 Q1023 NOSIG

More Conditions Fewer Conditions

Pressure 30.21 in
Visibility -9999.0 miles
Clouds
Dew Point 38 °F
Humidity 44%
Rainfall -999.00 in
Snow Depth Not available.
UV Not available.
Pollen Not available.
Air Quality Not available.
Flu Activity Not available.
METAR LEAL 312300Z VRB02KT CAVOK 16/15 Q1023 NOSIG

More Conditions Fewer Conditions

10-Day Weather Forecast

Almanac

Astronomy

Nov. 01, 2014 Rise Set
Actual Time
Civil Twilight
Nautical Twilight
Astronomical Twilight
Moon
Length of Visible Light
Length of Day
Tomorrow will be .
, % of the Moon is Illuminated

Today's Extremes

Country Highs Country Lows

Community

WunderPhotos

Upload Photos

1,766,775 photos uploaded!

WunderBlogs® & News

Nearby

Air Quality

  Air Quality AQ Index Pollutant
Not available.

Snow Depth

Station Depth Elevation

Earthquake Activity

City Distance Mag. Time & Date
Minimum magnitude displayed is 2.5.

Coastal Water Temperatures

Place Temperature

Nearby Weather Stations